Time;durP1;ratioP1;P1;durP2;ratioP2;P2;SDS_P1;SDS_P2;PMS_P1;PMS_P2;Temp;Humidity;BMP_temperature;BMP_pressure;BME280_temperature;BME280_humidity;BME280_pressure;Samples;Min_cycle;Max_cycle;Signal;HPM_P1;HPM_P2
2021/05/10 00:00:29;;;;;;;0.20;0.20;;;16.90;99.90;;;;;;5021270;28;20293;-86
2021/05/10 00:02:55;;;;;;;0.23;0.23;;;17.00;99.90;;;;;;5024035;28;20187;-86
2021/05/10 00:05:20;;;;;;;0.27;0.23;;;17.10;99.90;;;;;;5014620;28;20195;-86
2021/05/10 00:07:46;;;;;;;0.10;0.10;;;17.00;99.90;;;;;;5028279;28;20253;-86
2021/05/10 00:10:11;;;;;;;0.10;0.10;;;17.00;99.90;;;;;;5015398;28;20248;-86
2021/05/10 00:12:37;;;;;;;0.30;0.30;;;17.00;99.90;;;;;;5028000;28;20193;-86
2021/05/10 00:15:04;;;;;;;0.13;0.13;;;17.10;99.90;;;;;;5014442;28;20592;-86
2021/05/10 00:17:30;;;;;;;0.20;0.20;;;17.10;99.90;;;;;;5015481;28;20183;-85
2021/05/10 00:19:56;;;;;;;0.40;0.40;;;17.00;99.90;;;;;;5027126;28;20220;-86
2021/05/10 00:22:22;;;;;;;0.93;0.50;;;17.00;99.90;;;;;;5021492;28;20191;-86
2021/05/10 00:24:48;;;;;;;0.57;0.57;;;16.90;99.90;;;;;;5007697;28;20306;-86
2021/05/10 00:27:14;;;;;;;0.17;0.17;;;17.00;99.90;;;;;;5026681;28;20195;-86
2021/05/10 00:29:40;;;;;;;0.37;0.27;;;17.00;99.90;;;;;;5020093;28;20233;-86
2021/05/10 00:32:06;;;;;;;0.30;0.30;;;16.80;99.90;;;;;;5017902;28;20269;-87
2021/05/10 00:34:31;;;;;;;0.43;0.37;;;16.80;99.90;;;;;;5020849;28;20182;-86
2021/05/10 00:36:57;;;;;;;0.30;0.30;;;16.90;99.90;;;;;;5022619;28;20183;-85
2021/05/10 00:39:22;;;;;;;0.40;0.40;;;16.90;99.90;;;;;;5027068;28;20214;-86
2021/05/10 00:41:48;;;;;;;0.40;0.40;;;16.80;99.90;;;;;;5019996;28;20229;-86
2021/05/10 00:44:14;;;;;;;0.27;0.27;;;16.80;99.90;;;;;;5020391;28;20206;-86
2021/05/10 00:46:40;;;;;;;0.20;0.20;;;17.00;99.90;;;;;;5026039;28;20264;-86
2021/05/10 00:49:06;;;;;;;0.20;0.20;;;17.10;99.90;;;;;;5014566;28;20199;-85
2021/05/10 00:51:32;;;;;;;0.17;0.17;;;17.10;99.90;;;;;;5022067;28;20185;-86
2021/05/10 00:53:57;;;;;;;0.33;0.33;;;17.20;99.90;;;;;;5023414;28;20237;-86
2021/05/10 00:56:24;;;;;;;0.20;0.17;;;17.30;99.90;;;;;;5013628;28;20650;-86
2021/05/10 00:58:49;;;;;;;0.40;0.40;;;17.40;99.90;;;;;;5015120;28;20234;-86
2021/05/10 01:01:15;;;;;;;0.33;0.33;;;17.40;99.90;;;;;;5025936;28;20256;-86
2021/05/10 01:03:44;;;;;;;0.30;0.30;;;17.30;99.90;;;;;;5015022;28;20194;-86
2021/05/10 01:06:09;;;;;;;0.20;0.20;;;17.20;99.90;;;;;;5027395;28;20182;-86
2021/05/10 01:08:35;;;;;;;0.43;0.30;;;17.10;99.90;;;;;;5014449;28;20199;-86
2021/05/10 01:11:00;;;;;;;0.23;0.23;;;17.10;99.90;;;;;;5013549;28;20199;-85
2021/05/10 01:13:26;;;;;;;0.17;0.10;;;17.30;99.90;;;;;;5013762;28;20194;-85
2021/05/10 01:15:53;;;;;;;0.30;0.30;;;17.40;99.90;;;;;;5019956;28;20194;-86
2021/05/10 01:18:19;;;;;;;0.30;0.30;;;17.40;99.90;;;;;;5018738;28;20214;-86
2021/05/10 01:20:48;;;;;;;0.37;0.37;;;17.40;99.90;;;;;;5014202;28;20203;-85
2021/05/10 01:23:14;;;;;;;0.17;0.17;;;17.30;99.90;;;;;;5018652;28;20186;-85
2021/05/10 01:25:40;;;;;;;0.10;0.10;;;17.20;99.90;;;;;;5012510;28;20187;-86
2021/05/10 01:28:06;;;;;;;0.13;0.13;;;17.40;99.90;;;;;;5012835;28;20701;-85
2021/05/10 01:30:34;;;;;;;0.30;0.30;;;17.40;99.90;;;;;;5022060;28;20190;-85
2021/05/10 01:33:01;;;;;;;0.10;0.10;;;17.40;99.90;;;;;;5024362;28;20203;-85
2021/05/10 01:35:29;;;;;;;0.30;0.30;;;17.30;99.90;;;;;;5025538;28;20190;-85
2021/05/10 01:37:56;;;;;;;1.03;0.30;;;17.10;99.90;;;;;;5012787;28;20186;-85
2021/05/10 01:40:23;;;;;;;0.57;0.47;;;16.90;99.90;;;;;;5013516;28;20269;-85
2021/05/10 01:42:49;;;;;;;3.10;0.30;;;16.90;99.90;;;;;;5011691;28;20190;-85
2021/05/10 01:45:14;;;;;;;0.50;0.50;;;16.80;99.90;;;;;;5005720;28;20179;-85
2021/05/10 01:47:41;;;;;;;0.20;0.20;;;17.10;99.90;;;;;;5012185;28;20211;-85
2021/05/10 01:50:12;;;;;;;0.20;0.20;;;17.10;99.90;;;;;;5017280;28;20272;-85
2021/05/10 01:52:37;;;;;;;0.67;0.67;;;17.30;99.90;;;;;;5020958;28;20607;-85
2021/05/10 01:55:16;;;;;;;0.37;0.37;;;17.80;99.90;;;;;;5029599;28;20199;-85
2021/05/10 01:57:48;;;;;;;0.23;0.23;;;18.10;99.90;;;;;;5035207;28;20340;-85
2021/05/10 02:00:17;;;;;;;1.97;0.70;;;18.30;99.90;;;;;;5016813;28;20574;-85
2021/05/10 02:02:43;;;;;;;0.23;0.23;;;18.40;99.90;;;;;;5031108;28;20197;-86
2021/05/10 02:05:12;;;;;;;0.20;0.20;;;18.50;99.90;;;;;;5014786;28;20190;-85
2021/05/10 02:07:59;;;;;;;0.40;0.40;;;18.50;99.90;;;;;;5006947;28;20221;-86
2021/05/10 02:10:26;;;;;;;0.20;0.20;;;18.50;99.90;;;;;;5005536;28;20219;-85
2021/05/10 02:13:09;;;;;;;0.20;0.20;;;18.50;99.90;;;;;;5012881;28;20197;-85
2021/05/10 02:15:43;;;;;;;0.30;0.30;;;18.50;99.90;;;;;;5022088;28;20180;-86
2021/05/10 02:18:10;;;;;;;2.00;0.23;;;18.60;99.90;;;;;;5012040;28;20221;-85
2021/05/10 02:20:37;;;;;;;0.30;0.23;;;18.60;99.90;;;;;;5011652;28;20216;-86
2021/05/10 02:23:07;;;;;;;0.27;0.27;;;18.70;99.90;;;;;;5011503;28;20287;-85
2021/05/10 02:25:44;;;;;;;0.17;0.17;;;18.70;99.90;;;;;;5011171;28;20270;-86
2021/05/10 02:28:11;;;;;;;0.40;0.40;;;18.60;99.90;;;;;;5019061;28;20919;-86
2021/05/10 02:30:38;;;;;;;0.20;0.20;;;18.70;99.90;;;;;;5023969;28;20222;-86
2021/05/10 02:33:07;;;;;;;0.10;0.10;;;18.70;99.90;;;;;;5001422;28;20253;-86
2021/05/10 02:35:33;;;;;;;0.23;0.23;;;18.70;99.90;;;;;;5015847;28;20194;-86
2021/05/10 02:37:58;;;;;;;0.60;0.60;;;18.70;99.90;;;;;;5012909;28;20186;-86
2021/05/10 02:40:24;;;;;;;0.30;0.30;;;18.70;99.90;;;;;;5010216;28;20261;-86
2021/05/10 02:42:50;;;;;;;0.20;0.20;;;18.60;99.90;;;;;;5023924;28;20183;-85
2021/05/10 02:45:17;;;;;;;1.27;1.17;;;18.50;99.90;;;;;;5010199;28;20193;-85
2021/05/10 02:47:45;;;;;;;0.30;0.30;;;18.30;99.90;;;;;;5012499;28;20262;-85
2021/05/10 02:50:13;;;;;;;0.33;0.33;;;18.20;99.90;;;;;;5013094;28;20588;-85
2021/05/10 02:52:39;;;;;;;0.43;0.43;;;18.10;99.90;;;;;;5023011;28;20193;-85
2021/05/10 02:55:07;;;;;;;0.20;0.20;;;18.00;99.90;;;;;;5011492;28;20550;-87
2021/05/10 02:57:33;;;;;;;0.77;0.77;;;17.90;99.90;;;;;;5012220;28;20203;-86
2021/05/10 02:59:59;;;;;;;0.17;0.17;;;17.90;99.90;;;;;;5011031;28;20245;-86
2021/05/10 03:02:25;;;;;;;0.20;0.20;;;17.80;99.90;;;;;;5019312;28;20186;-86
2021/05/10 03:04:51;;;;;;;0.47;0.47;;;17.70;99.90;;;;;;5013198;28;20189;-86
2021/05/10 03:07:17;;;;;;;0.17;0.17;;;17.70;99.90;;;;;;5009474;28;20230;-86
2021/05/10 03:09:42;;;;;;;0.33;0.33;;;17.70;99.90;;;;;;5011867;28;20207;-86
2021/05/10 03:12:08;;;;;;;0.67;0.67;;;17.70;99.90;;;;;;5022862;28;20233;-86
2021/05/10 03:14:34;;;;;;;0.30;0.30;;;17.70;99.90;;;;;;5013984;28;20532;-86
2021/05/10 03:17:00;;;;;;;0.50;0.50;;;17.70;99.90;;;;;;5015737;28;20191;-84
2021/05/10 03:19:25;;;;;;;0.10;0.10;;;17.70;99.90;;;;;;5017497;28;20222;-86
2021/05/10 03:21:51;;;;;;;0.20;0.20;;;17.80;99.90;;;;;;5027455;28;20178;-86
2021/05/10 03:24:17;;;;;;;0.10;0.10;;;17.70;99.90;;;;;;5014919;28;20190;-85
2021/05/10 03:26:42;;;;;;;0.40;0.40;;;17.80;99.90;;;;;;5016180;28;20175;-86
2021/05/10 03:29:09;;;;;;;0.30;0.30;;;17.80;99.90;;;;;;5018061;28;20211;-86
2021/05/10 03:31:36;;;;;;;0.60;0.50;;;17.80;99.90;;;;;;5025892;28;20186;-86
2021/05/10 03:34:03;;;;;;;0.20;0.20;;;17.60;99.90;;;;;;5019082;28;20183;-86
2021/05/10 03:36:29;;;;;;;0.60;0.60;;;17.50;99.90;;;;;;5018615;28;20254;-86
2021/05/10 03:38:55;;;;;;;0.30;0.30;;;17.50;99.90;;;;;;5014710;28;20210;-87
2021/05/10 03:41:24;;;;;;;0.50;0.47;;;17.40;99.90;;;;;;5023309;28;20197;-86
2021/05/10 03:43:50;;;;;;;0.30;0.30;;;17.30;99.90;;;;;;5019061;28;20229;-86
2021/05/10 03:46:16;;;;;;;0.10;0.10;;;17.40;99.90;;;;;;5004920;28;20251;-86
2021/05/10 03:48:42;;;;;;;0.90;0.40;;;17.40;99.90;;;;;;5010400;28;20227;-87
2021/05/10 03:51:08;;;;;;;0.37;0.37;;;17.20;99.90;;;;;;5018565;28;20225;-86
2021/05/10 03:53:34;;;;;;;0.20;0.20;;;17.10;99.90;;;;;;5028003;28;20569;-86
2021/05/10 03:56:00;;;;;;;0.30;0.30;;;17.20;99.90;;;;;;5020297;28;20187;-86
2021/05/10 03:58:25;;;;;;;0.20;0.20;;;17.30;99.90;;;;;;5014435;28;20570;-86
2021/05/10 04:00:52;;;;;;;0.20;0.20;;;17.30;99.90;;;;;;5014238;28;20203;-86
2021/05/10 04:03:18;;;;;;;0.50;0.50;;;17.20;99.90;;;;;;5013594;28;20678;-86
2021/05/10 04:10:57;;;;;;;0.53;0.53;;;17.40;99.90;;;;;;5007567;28;20644;-85
2021/05/10 04:16:08;;;;;;;0.30;0.30;;;17.50;99.90;;;;;;5013300;28;20234;-85
2021/05/10 04:18:34;;;;;;;0.20;0.20;;;17.70;99.90;;;;;;5024777;28;20210;-86
2021/05/10 04:21:01;;;;;;;0.60;0.60;;;17.60;99.90;;;;;;5020354;28;20234;-85
2021/05/10 04:23:27;;;;;;;0.20;0.20;;;17.60;99.90;;;;;;5013486;28;20183;-86
2021/05/10 04:25:53;;;;;;;0.30;0.30;;;17.70;99.90;;;;;;5021162;28;20237;-86
2021/05/10 04:28:23;;;;;;;0.30;0.30;;;17.70;99.90;;;;;;4995715;28;20330;-85
2021/05/10 04:30:51;;;;;;;0.30;0.30;;;17.70;99.90;;;;;;5023715;28;20269;-86
2021/05/10 04:33:25;;;;;;;1.70;0.47;;;17.70;99.90;;;;;;5012269;28;20281;-86
2021/05/10 04:35:51;;;;;;;0.30;0.30;;;17.70;99.90;;;;;;5043957;22;20617;-81
2021/05/10 04:38:16;;;;;;;0.20;0.20;;;17.70;99.90;;;;;;5024944;28;20195;-81
2021/05/10 04:40:42;;;;;;;0.40;0.40;;;17.60;99.90;;;;;;5028599;28;20207;-81
2021/05/10 04:43:08;;;;;;;0.40;0.33;;;17.60;99.90;;;;;;5012549;28;20186;-81
2021/05/10 04:45:34;;;;;;;0.10;0.10;;;17.70;99.90;;;;;;5016771;28;20465;-84
2021/05/10 04:48:00;;;;;;;0.27;0.27;;;17.70;99.90;;;;;;5007620;28;20651;-81
2021/05/10 04:50:25;;;;;;;0.20;0.20;;;17.70;99.90;;;;;;5012399;28;20262;-83
2021/05/10 04:52:51;;;;;;;1.17;0.57;;;17.50;99.90;;;;;;5013871;28;20669;-84
2021/05/10 04:55:16;;;;;;;0.20;0.20;;;17.50;99.90;;;;;;5009657;28;20214;-80
2021/05/10 04:57:44;;;;;;;0.60;0.17;;;17.60;99.90;;;;;;5013026;28;20190;-80
2021/05/10 05:00:12;;;;;;;0.13;0.13;;;17.70;99.90;;;;;;5010384;28;20277;-81
2021/05/10 05:02:37;;;;;;;0.17;0.17;;;17.70;99.90;;;;;;5007889;28;20218;-81
2021/05/10 05:05:05;;;;;;;0.50;0.50;;;17.70;99.90;;;;;;5012344;28;20207;-80
2021/05/10 05:07:31;;;;;;;0.17;0.17;;;17.70;99.90;;;;;;5011248;28;20176;-81
2021/05/10 05:09:56;;;;;;;0.10;0.10;;;17.80;99.90;;;;;;5009397;28;20229;-82
2021/05/10 05:12:22;;;;;;;0.20;0.20;;;17.70;99.90;;;;;;5010243;28;20183;-83
2021/05/10 05:14:48;;;;;;;0.10;0.10;;;17.80;99.90;;;;;;5020685;28;20199;-83
2021/05/10 05:17:13;;;;;;;1.03;0.40;;;17.70;99.90;;;;;;5010736;28;20181;-84
2021/05/10 05:19:39;;;;;;;0.20;0.20;;;17.60;99.90;;;;;;5009891;28;20199;-80
2021/05/10 05:22:05;;;;;;;0.53;0.50;;;17.50;99.90;;;;;;5011157;28;20190;-79
2021/05/10 05:24:30;;;;;;;0.10;0.10;;;17.60;99.90;;;;;;5007572;28;20191;-83
2021/05/10 05:26:56;;;;;;;0.47;0.43;;;17.70;99.90;;;;;;5008969;28;20562;-83
2021/05/10 05:29:22;;;;;;;0.30;0.30;;;17.90;99.90;;;;;;5009687;28;20272;-83
2021/05/10 05:31:52;;;;;;;0.30;0.30;;;17.70;99.90;;;;;;5010466;28;20194;-83
2021/05/10 05:34:18;;;;;;;0.77;0.77;;;17.40;99.90;;;;;;5008035;28;20183;-83
2021/05/10 05:36:44;;;;;;;1.13;0.30;;;17.50;99.90;;;;;;5008040;28;20194;-84
2021/05/10 05:39:10;;;;;;;0.30;0.30;;;17.50;99.90;;;;;;5011156;28;20646;-84
2021/05/10 05:41:36;;;;;;;0.60;0.60;;;17.60;99.90;;;;;;5025458;28;20271;-83
2021/05/10 05:44:03;;;;;;;0.40;0.30;;;17.70;99.90;;;;;;5010834;28;20665;-83
2021/05/10 05:46:33;;;;;;;0.30;0.30;;;17.80;99.90;;;;;;5025594;28;20209;-83
2021/05/10 05:48:58;;;;;;;0.20;0.20;;;18.00;99.90;;;;;;5008555;28;20248;-83
2021/05/10 05:51:24;;;;;;;0.10;0.10;;;18.10;99.90;;;;;;5005911;28;20238;-82
2021/05/10 05:53:54;;;;;;;0.20;0.20;;;18.20;99.90;;;;;;5009162;28;20193;-83
2021/05/10 05:56:20;;;;;;;0.37;0.37;;;18.30;99.90;;;;;;5011960;28;20217;-83
2021/05/10 05:58:47;;;;;;;0.30;0.30;;;18.50;99.90;;;;;;5003821;28;20191;-83
2021/05/10 06:01:13;;;;;;;0.20;0.20;;;18.70;99.90;;;;;;5006816;28;20227;-84
2021/05/10 06:03:39;;;;;;;0.50;0.30;;;18.70;99.90;;;;;;5006836;28;20193;-83
2021/05/10 06:06:04;;;;;;;0.30;0.23;;;18.70;99.90;;;;;;5003963;28;20207;-83
2021/05/10 06:08:30;;;;;;;0.10;0.10;;;18.80;99.90;;;;;;5006205;28;20194;-82
2021/05/10 06:10:55;;;;;;;0.63;0.40;;;19.00;99.90;;;;;;5002909;28;20685;-81
2021/05/10 06:13:21;;;;;;;0.30;0.30;;;19.10;99.90;;;;;;5009202;28;20898;-83
2021/05/10 06:15:47;;;;;;;0.40;0.40;;;18.60;99.90;;;;;;5025835;28;20212;-83
2021/05/10 06:18:13;;;;;;;2.53;0.30;;;18.30;99.90;;;;;;5007459;28;20963;-82
2021/05/10 06:20:40;;;;;;;0.40;0.37;;;18.50;99.90;;;;;;5002741;28;20203;-83
2021/05/10 06:23:05;;;;;;;0.30;0.30;;;18.80;99.90;;;;;;5010853;28;20193;-83
2021/05/10 06:25:31;;;;;;;0.13;0.13;;;19.00;99.90;;;;;;5025426;28;20199;-83
2021/05/10 06:27:57;;;;;;;0.37;0.23;;;19.20;99.90;;;;;;5022904;28;20191;-83
2021/05/10 06:30:23;;;;;;;1.40;0.40;;;19.40;99.90;;;;;;5010703;28;20190;-82
2021/05/10 06:32:53;;;;;;;0.30;0.30;;;19.40;99.90;;;;;;5008501;28;20647;-83
2021/05/10 06:35:19;;;;;;;0.13;0.13;;;19.50;99.90;;;;;;4998444;28;20222;-83
2021/05/10 06:37:45;;;;;;;0.40;0.40;;;19.60;99.90;;;;;;5014736;28;20675;-83
2021/05/10 06:40:11;;;;;;;0.97;0.40;;;19.80;99.90;;;;;;5017615;28;20210;-81
2021/05/10 06:42:37;;;;;;;0.30;0.30;;;19.90;99.90;;;;;;5008899;28;20181;-83
2021/05/10 06:45:06;;;;;;;0.43;0.43;;;20.00;99.90;;;;;;5010619;28;20293;-83
2021/05/10 06:47:32;;;;;;;0.33;0.33;;;20.10;99.90;;;;;;5015413;28;20190;-83
2021/05/10 06:49:58;;;;;;;0.27;0.27;;;20.10;99.90;;;;;;5005593;28;20198;-83
2021/05/10 06:52:24;;;;;;;1.07;0.50;;;20.20;99.90;;;;;;5007908;28;20557;-83
2021/05/10 06:54:49;;;;;;;0.23;0.23;;;20.30;99.90;;;;;;5009439;28;20274;-83
2021/05/10 06:57:15;;;;;;;1.73;0.40;;;20.50;99.90;;;;;;5005693;28;20190;-82
2021/05/10 06:59:42;;;;;;;0.43;0.43;;;20.70;99.90;;;;;;5010346;28;20226;-84
2021/05/10 07:02:07;;;;;;;1.07;0.47;;;20.80;99.90;;;;;;4999341;28;20561;-78
2021/05/10 07:04:33;;;;;;;1.47;0.43;;;20.80;99.90;;;;;;4989223;28;20226;-78
2021/05/10 07:06:58;;;;;;;0.30;0.30;;;20.70;99.90;;;;;;4994692;28;20183;-79
2021/05/10 07:09:24;;;;;;;3.03;1.30;;;20.70;99.90;;;;;;4985435;28;20183;-80
2021/05/10 07:11:50;;;;;;;0.20;0.20;;;20.60;99.90;;;;;;4987410;28;20265;-80
2021/05/10 07:14:16;;;;;;;0.47;0.30;;;20.50;99.90;;;;;;4999057;28;20184;-80
2021/05/10 07:16:42;;;;;;;0.77;0.40;;;20.60;99.90;;;;;;5005879;28;20186;-78
2021/05/10 07:19:07;;;;;;;0.20;0.20;;;20.80;99.90;;;;;;5004049;28;20647;-79
2021/05/10 07:21:33;;;;;;;1.70;0.40;;;20.70;99.90;;;;;;5012277;28;20203;-79
2021/05/10 07:23:59;;;;;;;0.90;0.47;;;20.90;99.90;;;;;;5008894;28;20257;-80
2021/05/10 07:26:25;;;;;;;0.33;0.33;;;20.80;99.90;;;;;;4993186;28;20211;-81
2021/05/10 07:28:51;;;;;;;0.13;0.13;;;20.80;99.90;;;;;;5007428;28;20211;-83
2021/05/10 07:31:17;;;;;;;0.23;0.23;;;20.70;99.90;;;;;;5007794;28;20559;-84
2021/05/10 07:33:42;;;;;;;0.43;0.43;;;20.70;99.90;;;;;;5006502;28;20195;-84
2021/05/10 07:36:08;;;;;;;0.30;0.30;;;20.70;99.90;;;;;;5010575;28;20593;-79
2021/05/10 07:38:33;;;;;;;0.33;0.33;;;20.70;99.90;;;;;;5007808;28;20213;-83
2021/05/10 07:40:59;;;;;;;0.10;0.10;;;20.70;99.90;;;;;;5017184;28;20309;-83
2021/05/10 07:43:25;;;;;;;0.20;0.20;;;20.80;99.90;;;;;;5007554;28;20187;-83
2021/05/10 07:45:50;;;;;;;0.30;0.30;;;20.90;99.90;;;;;;5009392;28;20726;-83
2021/05/10 07:48:16;;;;;;;0.30;0.30;;;20.90;99.90;;;;;;5008426;28;20183;-81
2021/05/10 07:50:42;;;;;;;0.20;0.20;;;21.00;99.90;;;;;;5013125;28;20706;-83
2021/05/10 07:53:07;;;;;;;0.67;0.67;;;20.90;99.90;;;;;;5020643;28;20190;-82
2021/05/10 07:55:39;;;;;;;0.20;0.20;;;20.80;99.90;;;;;;5016772;28;20662;-82
2021/05/10 07:58:05;;;;;;;0.20;0.20;;;20.80;99.90;;;;;;5008193;28;20222;-81
2021/05/10 08:00:33;;;;;;;1.93;0.30;;;20.70;99.90;;;;;;5010248;28;20238;-82
2021/05/10 08:03:09;;;;;;;0.20;0.20;;;20.60;99.90;;;;;;5012399;28;20659;-82
2021/05/10 08:05:36;;;;;;;0.20;0.20;;;20.30;99.90;;;;;;5024902;28;20217;-82
2021/05/10 08:08:03;;;;;;;0.20;0.20;;;20.30;99.90;;;;;;5004532;28;20189;-82
2021/05/10 08:10:29;;;;;;;0.40;0.30;;;20.20;99.90;;;;;;5015112;28;20298;-82
2021/05/10 08:12:55;;;;;;;0.23;0.23;;;20.20;99.90;;;;;;5025310;28;20187;-82
2021/05/10 08:15:21;;;;;;;0.20;0.20;;;20.20;99.90;;;;;;5032313;28;20297;-82
2021/05/10 08:17:46;;;;;;;0.40;0.40;;;20.30;99.90;;;;;;5012627;28;20252;-82
2021/05/10 08:20:13;;;;;;;0.20;0.20;;;20.30;99.90;;;;;;5013636;28;20670;-82
2021/05/10 08:22:38;;;;;;;0.10;0.10;;;20.30;99.90;;;;;;5008628;28;20317;-81
2021/05/10 08:25:04;;;;;;;0.10;0.10;;;20.30;99.90;;;;;;5005549;28;20290;-82
2021/05/10 08:27:33;;;;;;;0.10;0.10;;;20.20;99.90;;;;;;5006580;28;20251;-80
2021/05/10 08:29:58;;;;;;;0.13;0.13;;;20.20;99.90;;;;;;5012232;28;20193;-82
2021/05/10 08:32:24;;;;;;;0.70;0.40;;;20.30;99.90;;;;;;5012032;28;20594;-82
2021/05/10 08:34:50;;;;;;;0.20;0.20;;;20.30;99.90;;;;;;5002937;28;20210;-82
2021/05/10 08:37:16;;;;;;;0.10;0.10;;;20.40;99.90;;;;;;5008206;28;20187;-81
2021/05/10 08:39:42;;;;;;;0.10;0.10;;;20.40;99.90;;;;;;5011067;28;20253;-82
2021/05/10 08:42:08;;;;;;;4.07;0.27;;;20.40;99.90;;;;;;5009720;28;20569;-82
2021/05/10 08:44:34;;;;;;;0.40;0.40;;;20.40;99.90;;;;;;5018722;28;20270;-82
2021/05/10 08:46:59;;;;;;;0.53;0.47;;;20.40;99.90;;;;;;5012485;28;20179;-82
2021/05/10 08:49:25;;;;;;;0.20;0.20;;;20.30;99.90;;;;;;5015141;28;20179;-82
2021/05/10 08:51:51;;;;;;;0.10;0.10;;;20.30;99.90;;;;;;5012112;28;20644;-82
2021/05/10 08:54:24;;;;;;;0.90;0.30;;;20.30;99.90;;;;;;5011392;28;20179;-82
2021/05/10 08:56:50;;;;;;;0.20;0.20;;;20.20;99.90;;;;;;5014721;28;20248;-82
2021/05/10 08:59:19;;;;;;;0.20;0.20;;;20.10;99.90;;;;;;5012855;28;20190;-81
2021/05/10 09:01:57;;;;;;;0.17;0.17;;;20.10;99.90;;;;;;5001181;28;20180;-81
2021/05/10 09:04:35;;;;;;;0.40;0.40;;;20.10;99.90;;;;;;5015468;28;20198;-81
2021/05/10 09:07:14;;;;;;;0.23;0.13;;;20.00;99.90;;;;;;5019936;28;20167;-81
2021/05/10 09:09:58;;;;;;;0.00;0.00;;;20.00;99.90;;;;;;5014920;28;20195;-82
2021/05/10 09:12:23;;;;;;;0.20;0.20;;;19.90;99.90;;;;;;5015281;28;20266;-80
2021/05/10 09:14:52;;;;;;;0.20;0.20;;;19.90;99.90;;;;;;5017510;28;20230;-81
2021/05/10 09:17:19;;;;;;;0.20;0.20;;;19.80;99.90;;;;;;5017398;28;20202;-81
2021/05/10 09:19:57;;;;;;;0.23;0.23;;;19.80;99.90;;;;;;5015484;28;20203;-81
2021/05/10 09:22:24;;;;;;;0.10;0.10;;;19.60;99.90;;;;;;5015774;28;20177;-80
2021/05/10 09:24:51;;;;;;;1.80;0.47;;;19.70;99.90;;;;;;5018990;28;20199;-81
2021/05/10 09:27:23;;;;;;;0.20;0.20;;;19.60;99.90;;;;;;5022309;28;20179;-81
2021/05/10 09:30:13;;;;;;;0.17;0.17;;;19.60;99.90;;;;;;5022024;28;20175;-80
2021/05/10 09:32:39;;;;;;;0.23;0.20;;;19.50;99.90;;;;;;5018044;28;20183;-80
2021/05/10 09:35:22;;;;;;;0.10;0.10;;;19.40;99.90;;;;;;5020258;28;20226;-80
2021/05/10 09:38:03;;;;;;;1.17;1.17;;;19.50;99.90;;;;;;5017930;28;20197;-81
2021/05/10 09:40:41;;;;;;;1.13;0.40;;;19.40;99.90;;;;;;5017494;28;20206;-80
2021/05/10 09:43:07;;;;;;;0.10;0.10;;;19.40;99.90;;;;;;5033417;28;20187;-81
2021/05/10 09:45:50;;;;;;;0.40;0.40;;;19.30;99.90;;;;;;5016830;28;20205;-79
2021/05/10 09:48:23;;;;;;;0.10;0.10;;;19.30;99.90;;;;;;5022961;28;20536;-82
2021/05/10 09:50:53;;;;;;;0.13;0.13;;;19.30;99.90;;;;;;5019164;28;20182;-80
2021/05/10 09:53:31;;;;;;;0.10;0.10;;;19.30;99.90;;;;;;5015308;28;20270;-80
2021/05/10 09:55:57;;;;;;;0.43;0.20;;;19.20;99.90;;;;;;5003189;28;20212;-82
2021/05/10 09:58:25;;;;;;;0.10;0.10;;;19.10;99.90;;;;;;5012357;28;20249;-83
2021/05/10 10:00:58;;;;;;;0.17;0.17;;;19.00;99.90;;;;;;5012497;28;20216;-81
2021/05/10 10:03:29;;;;;;;0.10;0.10;;;18.90;99.90;;;;;;5013884;28;20245;-81
2021/05/10 10:05:58;;;;;;;0.10;0.10;;;18.90;99.90;;;;;;5014402;28;20198;-81
2021/05/10 10:08:25;;;;;;;0.10;0.10;;;18.90;99.90;;;;;;5014065;28;20187;-80
2021/05/10 10:10:51;;;;;;;0.17;0.17;;;18.90;99.90;;;;;;5012715;28;20214;-82
2021/05/10 10:13:18;;;;;;;0.10;0.10;;;18.90;99.90;;;;;;5010425;28;20286;-81
2021/05/10 10:15:44;;;;;;;0.63;0.20;;;18.90;99.90;;;;;;5011316;28;20274;-81
2021/05/10 10:18:11;;;;;;;0.10;0.10;;;19.00;99.90;;;;;;5026379;28;20190;-82
2021/05/10 10:20:39;;;;;;;0.10;0.10;;;18.90;99.90;;;;;;5009433;28;20210;-82
2021/05/10 10:23:08;;;;;;;0.47;0.33;;;18.90;99.90;;;;;;5009089;28;20187;-81
2021/05/10 10:25:36;;;;;;;0.10;0.10;;;18.90;99.90;;;;;;5020184;28;20706;-81
2021/05/10 10:28:05;;;;;;;0.20;0.20;;;18.90;99.90;;;;;;5010846;28;20221;-80
2021/05/10 10:30:32;;;;;;;0.73;0.73;;;19.00;99.90;;;;;;5008807;28;20555;-81
2021/05/10 10:33:04;;;;;;;0.10;0.10;;;19.00;99.90;;;;;;5008956;28;20187;-80
2021/05/10 10:35:30;;;;;;;0.10;0.10;;;19.00;99.90;;;;;;4988513;28;591937;-82
2021/05/10 10:37:58;;;;;;;0.10;0.10;;;18.90;99.90;;;;;;5004031;28;20659;-82
2021/05/10 10:40:24;;;;;;;0.20;0.20;;;18.90;99.90;;;;;;5008175;28;20216;-82
2021/05/10 10:42:50;;;;;;;0.10;0.10;;;18.90;99.90;;;;;;5025054;28;20185;-82
2021/05/10 10:45:22;;;;;;;0.10;0.10;;;18.80;99.90;;;;;;5009372;28;20231;-81
2021/05/10 10:47:59;;;;;;;0.10;0.10;;;18.80;99.90;;;;;;5006802;28;20196;-82
2021/05/10 10:50:26;;;;;;;0.10;0.10;;;18.90;99.90;;;;;;5010868;28;20206;-82
2021/05/10 10:53:00;;;;;;;0.10;0.10;;;19.00;99.90;;;;;;5009878;28;20286;-81
2021/05/10 10:55:31;;;;;;;0.60;0.30;;;19.00;99.90;;;;;;5008609;28;20211;-80
2021/05/10 10:58:21;;;;;;;0.20;0.20;;;19.00;99.90;;;;;;5010005;28;20194;-80
2021/05/10 11:00:56;;;;;;;0.33;0.33;;;19.00;99.90;;;;;;5006833;28;20306;-81
2021/05/10 11:03:26;;;;;;;0.17;0.17;;;19.10;99.90;;;;;;5012530;28;20187;-81
2021/05/10 11:05:53;;;;;;;0.17;0.17;;;19.10;99.90;;;;;;5008042;28;20199;-81
2021/05/10 11:08:48;;;;;;;0.20;0.20;;;19.10;99.90;;;;;;5012596;28;20545;-82
2021/05/10 11:11:34;;;;;;;0.10;0.10;;;19.20;99.90;;;;;;5006195;28;20186;-81
2021/05/10 11:14:01;;;;;;;0.10;0.10;;;19.10;99.90;;;;;;5009394;28;20334;-81
2021/05/10 11:16:51;;;;;;;0.10;0.10;;;19.30;99.90;;;;;;5011135;28;20283;-80
2021/05/10 11:19:46;;;;;;;0.10;0.10;;;19.30;99.90;;;;;;5005150;28;20237;-81
2021/05/10 11:22:30;;;;;;;0.20;0.20;;;19.30;99.90;;;;;;5001020;28;20245;-81
2021/05/10 11:24:56;;;;;;;0.13;0.13;;;19.30;99.90;;;;;;5022734;28;20215;-82
2021/05/10 11:27:28;;;;;;;0.10;0.10;;;19.30;99.90;;;;;;5007679;28;20621;-80
2021/05/10 11:29:54;;;;;;;0.30;0.30;;;19.20;99.90;;;;;;5010300;28;20347;-82
2021/05/10 11:32:19;;;;;;;1.40;0.30;;;19.30;99.90;;;;;;5007770;28;20360;-82
2021/05/10 11:34:46;;;;;;;0.10;0.10;;;19.30;99.90;;;;;;5023047;28;20264;-81
2021/05/10 11:37:12;;;;;;;0.30;0.30;;;19.30;99.90;;;;;;5013848;28;20191;-82
2021/05/10 11:39:40;;;;;;;0.17;0.17;;;19.30;99.90;;;;;;5010238;28;20289;-81
2021/05/10 11:42:07;;;;;;;0.10;0.10;;;19.30;99.90;;;;;;5013590;28;20219;-80
2021/05/10 11:44:35;;;;;;;0.10;0.10;;;19.30;99.90;;;;;;5015149;28;20187;-79
2021/05/10 11:47:09;;;;;;;0.20;0.20;;;19.30;99.90;;;;;;5013082;28;20183;-81
2021/05/10 11:49:46;;;;;;;0.67;0.37;;;19.20;99.90;;;;;;5014832;28;20655;-80
2021/05/10 11:52:18;;;;;;;0.00;0.00;;;18.90;99.90;;;;;;5012276;28;20190;-79
2021/05/10 11:54:47;;;;;;;0.10;0.10;;;18.80;99.90;;;;;;5014864;28;20207;-80
2021/05/10 11:57:23;;;;;;;0.17;0.17;;;18.50;99.90;;;;;;5013738;28;20196;-80
2021/05/10 12:00:04;;;;;;;0.10;0.10;;;18.40;99.90;;;;;;5013900;28;20360;-80
2021/05/10 12:02:32;;;;;;;0.17;0.10;;;18.30;99.90;;;;;;5013087;28;20190;-80
2021/05/10 12:04:59;;;;;;;0.10;0.10;;;18.00;99.90;;;;;;5008489;28;20203;-79
2021/05/10 12:07:26;;;;;;;0.10;0.10;;;17.80;99.90;;;;;;5008935;28;20845;-80
2021/05/10 12:10:04;;;;;;;0.10;0.10;;;17.60;99.90;;;;;;5010220;28;20194;-80
2021/05/10 12:12:45;;;;;;;0.10;0.10;;;17.60;99.90;;;;;;5006516;28;20317;-80
2021/05/10 12:15:15;;;;;;;0.10;0.10;;;17.50;99.90;;;;;;5020974;28;20218;-80
2021/05/10 12:17:52;;;;;;;0.10;0.10;;;17.60;99.90;;;;;;5023049;28;20563;-80
2021/05/10 12:20:24;;;;;;;0.10;0.10;;;17.60;99.90;;;;;;5010930;28;20223;-80
2021/05/10 12:23:01;;;;;;;0.00;0.00;;;17.60;99.90;;;;;;5011844;28;20191;-80
2021/05/10 12:25:37;;;;;;;0.10;0.10;;;17.70;99.90;;;;;;5027826;28;20844;-80
2021/05/10 12:28:14;;;;;;;0.10;0.10;;;17.70;99.90;;;;;;5014159;28;20183;-79
2021/05/10 12:30:55;;;;;;;0.10;0.10;;;17.80;99.90;;;;;;5028713;28;20198;-80
2021/05/10 12:33:26;;;;;;;0.10;0.10;;;17.90;99.90;;;;;;5012752;28;20195;-79
2021/05/10 12:36:02;;;;;;;0.00;0.00;;;17.90;99.90;;;;;;5000715;28;20254;-79
2021/05/10 12:38:37;;;;;;;0.10;0.10;;;18.00;99.90;;;;;;5012039;28;20213;-80
2021/05/10 12:41:05;;;;;;;0.10;0.10;;;17.90;99.90;;;;;;5016987;28;20242;-80
2021/05/10 12:43:33;;;;;;;0.10;0.10;;;18.00;99.90;;;;;;5013265;28;20191;-80
2021/05/10 12:46:06;;;;;;;0.10;0.10;;;18.00;99.90;;;;;;5014412;28;20758;-79
2021/05/10 12:48:39;;;;;;;0.10;0.10;;;18.00;99.90;;;;;;5011821;28;20202;-78
2021/05/10 12:51:15;;;;;;;0.20;0.20;;;18.10;99.90;;;;;;5010506;28;20723;-82
2021/05/10 12:54:13;;;;;;;0.10;0.10;;;18.00;99.90;;;;;;5019960;28;20179;-82
2021/05/10 12:56:43;;;;;;;0.10;0.10;;;18.10;99.90;;;;;;5005545;28;20219;-81
2021/05/10 12:59:09;;;;;;;0.10;0.10;;;18.20;99.90;;;;;;5012565;28;20191;-80
2021/05/10 13:01:36;;;;;;;0.10;0.10;;;18.30;99.90;;;;;;5011894;28;20218;-81